sensor_id;sensor_type;location;lat;lon;timestamp;temperature;humidity
67131;HTU21D;54051;53.464;49.532;2023-05-14T00:01:49;12.18;65.77
67131;HTU21D;54051;53.464;49.532;2023-05-14T00:04:16;12.14;65.61
67131;HTU21D;54051;53.464;49.532;2023-05-14T00:06:44;12.13;65.88
67131;HTU21D;54051;53.464;49.532;2023-05-14T00:09:11;11.99;66.43
67131;HTU21D;54051;53.464;49.532;2023-05-14T00:11:38;12.05;66.45
67131;HTU21D;54051;53.464;49.532;2023-05-14T00:14:04;12.14;66.28
67131;HTU21D;54051;53.464;49.532;2023-05-14T00:16:30;12.13;66.53
67131;HTU21D;54051;53.464;49.532;2023-05-14T00:18:56;12.08;66.36
67131;HTU21D;54051;53.464;49.532;2023-05-14T00:21:22;12.08;66.08
67131;HTU21D;54051;53.464;49.532;2023-05-14T00:23:51;12.00;66.02
67131;HTU21D;54051;53.464;49.532;2023-05-14T00:26:17;11.93;66.08
67131;HTU21D;54051;53.464;49.532;2023-05-14T00:28:45;11.86;66.62
67131;HTU21D;54051;53.464;49.532;2023-05-14T00:31:11;11.83;66.87
67131;HTU21D;54051;53.464;49.532;2023-05-14T00:33:37;11.89;67.97
67131;HTU21D;54051;53.464;49.532;2023-05-14T00:36:03;12.07;67.71
67131;HTU21D;54051;53.464;49.532;2023-05-14T00:38:29;12.13;66.24
67131;HTU21D;54051;53.464;49.532;2023-05-14T00:40:55;12.12;66.01
67131;HTU21D;54051;53.464;49.532;2023-05-14T00:43:22;12.13;66.43
67131;HTU21D;54051;53.464;49.532;2023-05-14T00:45:49;12.03;67.07
67131;HTU21D;54051;53.464;49.532;2023-05-14T00:48:15;12.02;66.89
67131;HTU21D;54051;53.464;49.532;2023-05-14T00:50:42;12.16;66.58
67131;HTU21D;54051;53.464;49.532;2023-05-14T00:53:08;12.30;65.77
67131;HTU21D;54051;53.464;49.532;2023-05-14T00:55:35;12.45;65.11
67131;HTU21D;54051;53.464;49.532;2023-05-14T00:58:09;12.60;64.99
67131;HTU21D;54051;53.464;49.532;2023-05-14T01:00:36;12.75;64.79
67131;HTU21D;54051;53.464;49.532;2023-05-14T01:03:03;12.78;66.67
67131;HTU21D;54051;53.464;49.532;2023-05-14T01:05:34;12.64;68.68
67131;HTU21D;54051;53.464;49.532;2023-05-14T01:08:24;12.59;67.96
67131;HTU21D;54051;53.464;49.532;2023-05-14T01:10:51;12.51;69.05
67131;HTU21D;54051;53.464;49.532;2023-05-14T01:13:26;12.35;70.19
67131;HTU21D;54051;53.464;49.532;2023-05-14T01:15:54;12.23;71.58
67131;HTU21D;54051;53.464;49.532;2023-05-14T01:18:21;12.26;70.95
67131;HTU21D;54051;53.464;49.532;2023-05-14T01:20:49;12.33;70.63
67131;HTU21D;54051;53.464;49.532;2023-05-14T01:23:16;12.43;69.95
67131;HTU21D;54051;53.464;49.532;2023-05-14T01:25:42;12.40;69.70
67131;HTU21D;54051;53.464;49.532;2023-05-14T01:30:46;12.46;70.08
67131;HTU21D;54051;53.464;49.532;2023-05-14T01:33:14;12.38;70.84
67131;HTU21D;54051;53.464;49.532;2023-05-14T01:35:40;12.40;70.44
67131;HTU21D;54051;53.464;49.532;2023-05-14T01:38:08;12.48;70.45
67131;HTU21D;54051;53.464;49.532;2023-05-14T01:40:35;12.59;69.87
67131;HTU21D;54051;53.464;49.532;2023-05-14T01:43:01;12.65;69.55
67131;HTU21D;54051;53.464;49.532;2023-05-14T01:45:28;12.73;69.12
67131;HTU21D;54051;53.464;49.532;2023-05-14T01:47:54;12.90;67.93
67131;HTU21D;54051;53.464;49.532;2023-05-14T01:50:20;13.14;66.92
67131;HTU21D;54051;53.464;49.532;2023-05-14T01:52:46;13.33;66.02
67131;HTU21D;54051;53.464;49.532;2023-05-14T01:55:18;13.52;64.85
67131;HTU21D;54051;53.464;49.532;2023-05-14T01:57:43;13.61;64.15
67131;HTU21D;54051;53.464;49.532;2023-05-14T02:00:09;13.67;63.39
67131;HTU21D;54051;53.464;49.532;2023-05-14T02:02:36;13.76;62.78
67131;HTU21D;54051;53.464;49.532;2023-05-14T02:05:01;13.89;62.07
67131;HTU21D;54051;53.464;49.532;2023-05-14T02:07:27;14.07;61.52
67131;HTU21D;54051;53.464;49.532;2023-05-14T02:09:53;14.32;60.38
67131;HTU21D;54051;53.464;49.532;2023-05-14T02:12:19;14.60;59.12
67131;HTU21D;54051;53.464;49.532;2023-05-14T02:14:45;14.89;57.90
67131;HTU21D;54051;53.464;49.532;2023-05-14T02:17:11;15.06;56.93
67131;HTU21D;54051;53.464;49.532;2023-05-14T02:19:40;15.15;56.09
67131;HTU21D;54051;53.464;49.532;2023-05-14T02:22:06;15.29;56.23
67131;HTU21D;54051;53.464;49.532;2023-05-14T02:24:32;15.00;60.96
67131;HTU21D;54051;53.464;49.532;2023-05-14T02:26:58;14.54;63.19
67131;HTU21D;54051;53.464;49.532;2023-05-14T02:29:26;14.27;64.17
67131;HTU21D;54051;53.464;49.532;2023-05-14T02:31:52;14.30;64.85
67131;HTU21D;54051;53.464;49.532;2023-05-14T02:34:18;14.32;65.18
67131;HTU21D;54051;53.464;49.532;2023-05-14T02:36:44;14.43;64.38
67131;HTU21D;54051;53.464;49.532;2023-05-14T02:39:10;14.69;63.17
67131;HTU21D;54051;53.464;49.532;2023-05-14T02:41:36;15.25;61.47
67131;HTU21D;54051;53.464;49.532;2023-05-14T02:44:02;15.96;60.37
67131;HTU21D;54051;53.464;49.532;2023-05-14T02:46:29;16.12;58.56
67131;HTU21D;54051;53.464;49.532;2023-05-14T02:48:55;15.75;59.94
67131;HTU21D;54051;53.464;49.532;2023-05-14T02:51:21;15.62;60.18
67131;HTU21D;54051;53.464;49.532;2023-05-14T02:53:48;15.40;60.06
67131;HTU21D;54051;53.464;49.532;2023-05-14T02:56:14;15.25;60.64
67131;HTU21D;54051;53.464;49.532;2023-05-14T02:58:40;15.04;59.64
67131;HTU21D;54051;53.464;49.532;2023-05-14T03:01:06;14.87;60.99
67131;HTU21D;54051;53.464;49.532;2023-05-14T03:03:32;14.78;60.64
67131;HTU21D;54051;53.464;49.532;2023-05-14T03:05:58;14.85;59.00
67131;HTU21D;54051;53.464;49.532;2023-05-14T03:08:24;14.86;59.09
67131;HTU21D;54051;53.464;49.532;2023-05-14T03:10:50;15.02;58.75
67131;HTU21D;54051;53.464;49.532;2023-05-14T03:13:16;15.16;57.42
67131;HTU21D;54051;53.464;49.532;2023-05-14T03:15:44;15.19;57.33
67131;HTU21D;54051;53.464;49.532;2023-05-14T03:18:12;15.15;57.63
67131;HTU21D;54051;53.464;49.532;2023-05-14T03:20:38;15.19;57.71
67131;HTU21D;54051;53.464;49.532;2023-05-14T03:23:04;15.30;57.63
67131;HTU21D;54051;53.464;49.532;2023-05-14T03:25:30;15.41;57.12
67131;HTU21D;54051;53.464;49.532;2023-05-14T03:27:56;15.42;57.41
67131;HTU21D;54051;53.464;49.532;2023-05-14T03:30:22;15.43;57.85
67131;HTU21D;54051;53.464;49.532;2023-05-14T03:32:48;15.34;58.67
67131;HTU21D;54051;53.464;49.532;2023-05-14T03:35:14;15.23;60.72
67131;HTU21D;54051;53.464;49.532;2023-05-14T03:37:40;14.96;61.94
67131;HTU21D;54051;53.464;49.532;2023-05-14T03:40:06;14.89;62.53
67131;HTU21D;54051;53.464;49.532;2023-05-14T03:42:32;14.87;66.41
67131;HTU21D;54051;53.464;49.532;2023-05-14T03:44:58;14.87;67.43
67131;HTU21D;54051;53.464;49.532;2023-05-14T03:47:24;14.84;65.56
67131;HTU21D;54051;53.464;49.532;2023-05-14T03:49:50;14.83;64.45
67131;HTU21D;54051;53.464;49.532;2023-05-14T03:52:16;15.08;64.56
67131;HTU21D;54051;53.464;49.532;2023-05-14T03:54:42;15.37;63.00
67131;HTU21D;54051;53.464;49.532;2023-05-14T03:57:08;15.63;60.30
67131;HTU21D;54051;53.464;49.532;2023-05-14T03:59:33;15.92;60.56
67131;HTU21D;54051;53.464;49.532;2023-05-14T04:01:59;16.27;60.09
67131;HTU21D;54051;53.464;49.532;2023-05-14T04:04:25;16.81;59.56
67131;HTU21D;54051;53.464;49.532;2023-05-14T04:06:51;18.37;55.19
67131;HTU21D;54051;53.464;49.532;2023-05-14T04:09:17;21.73;45.05
67131;HTU21D;54051;53.464;49.532;2023-05-14T04:11:43;24.32;38.40
67131;HTU21D;54051;53.464;49.532;2023-05-14T04:14:08;26.52;33.63
67131;HTU21D;54051;53.464;49.532;2023-05-14T04:16:34;26.76;33.55
67131;HTU21D;54051;53.464;49.532;2023-05-14T04:19:01;27.25;31.93
67131;HTU21D;54051;53.464;49.532;2023-05-14T04:21:28;28.84;28.11
67131;HTU21D;54051;53.464;49.532;2023-05-14T04:23:55;30.92;24.14
67131;HTU21D;54051;53.464;49.532;2023-05-14T04:26:20;32.07;22.91
67131;HTU21D;54051;53.464;49.532;2023-05-14T04:28:46;32.92;20.99
67131;HTU21D;54051;53.464;49.532;2023-05-14T04:31:14;32.79;20.86
67131;HTU21D;54051;53.464;49.532;2023-05-14T04:33:43;31.80;22.66
67131;HTU21D;54051;53.464;49.532;2023-05-14T04:36:09;31.50;23.49
67131;HTU21D;54051;53.464;49.532;2023-05-14T04:38:35;31.84;21.96
67131;HTU21D;54051;53.464;49.532;2023-05-14T04:41:00;31.43;21.86
67131;HTU21D;54051;53.464;49.532;2023-05-14T04:43:26;31.97;21.88
67131;HTU21D;54051;53.464;49.532;2023-05-14T04:45:52;32.74;21.08
67131;HTU21D;54051;53.464;49.532;2023-05-14T04:48:18;33.31;20.23
67131;HTU21D;54051;53.464;49.532;2023-05-14T04:50:44;33.43;20.18
67131;HTU21D;54051;53.464;49.532;2023-05-14T04:53:10;33.22;19.81
67131;HTU21D;54051;53.464;49.532;2023-05-14T04:55:36;33.80;18.41
67131;HTU21D;54051;53.464;49.532;2023-05-14T04:58:02;33.21;19.84
67131;HTU21D;54051;53.464;49.532;2023-05-14T05:00:28;34.20;18.55
67131;HTU21D;54051;53.464;49.532;2023-05-14T05:02:54;35.75;16.47
67131;HTU21D;54051;53.464;49.532;2023-05-14T05:05:20;32.86;19.99
67131;HTU21D;54051;53.464;49.532;2023-05-14T05:07:46;28.71;26.94
67131;HTU21D;54051;53.464;49.532;2023-05-14T05:10:11;26.30;31.91
67131;HTU21D;54051;53.464;49.532;2023-05-14T05:12:37;24.58;35.64
67131;HTU21D;54051;53.464;49.532;2023-05-14T05:15:03;24.69;35.31
67131;HTU21D;54051;53.464;49.532;2023-05-14T05:17:30;26.19;32.33
67131;HTU21D;54051;53.464;49.532;2023-05-14T05:19:55;26.16;31.44
67131;HTU21D;54051;53.464;49.532;2023-05-14T05:22:22;24.17;35.95
67131;HTU21D;54051;53.464;49.532;2023-05-14T05:24:48;23.20;38.62
67131;HTU21D;54051;53.464;49.532;2023-05-14T05:27:14;23.06;40.36
67131;HTU21D;54051;53.464;49.532;2023-05-14T05:29:40;24.41;36.75
67131;HTU21D;54051;53.464;49.532;2023-05-14T05:32:06;23.29;39.18
67131;HTU21D;54051;53.464;49.532;2023-05-14T05:34:33;21.94;42.79
67131;HTU21D;54051;53.464;49.532;2023-05-14T05:36:59;21.13;45.24
67131;HTU21D;54051;53.464;49.532;2023-05-14T05:39:25;20.70;46.28
67131;HTU21D;54051;53.464;49.532;2023-05-14T05:41:52;20.77;45.64
67131;HTU21D;54051;53.464;49.532;2023-05-14T05:44:18;20.69;45.89
67131;HTU21D;54051;53.464;49.532;2023-05-14T05:46:44;20.59;46.37
67131;HTU21D;54051;53.464;49.532;2023-05-14T05:49:11;20.71;45.86
67131;HTU21D;54051;53.464;49.532;2023-05-14T05:51:37;20.90;46.51
67131;HTU21D;54051;53.464;49.532;2023-05-14T05:54:03;21.14;46.12
67131;HTU21D;54051;53.464;49.532;2023-05-14T05:56:29;21.14;45.74
67131;HTU21D;54051;53.464;49.532;2023-05-14T05:58:55;20.51;46.51
67131;HTU21D;54051;53.464;49.532;2023-05-14T06:01:21;20.17;48.01
67131;HTU21D;54051;53.464;49.532;2023-05-14T06:03:47;20.33;48.29
67131;HTU21D;54051;53.464;49.532;2023-05-14T06:06:13;20.32;48.92
67131;HTU21D;54051;53.464;49.532;2023-05-14T06:08:42;20.10;49.41
67131;HTU21D;54051;53.464;49.532;2023-05-14T06:11:09;19.96;49.50
67131;HTU21D;54051;53.464;49.532;2023-05-14T06:13:35;19.65;49.95
67131;HTU21D;54051;53.464;49.532;2023-05-14T06:16:01;19.23;50.88
67131;HTU21D;54051;53.464;49.532;2023-05-14T06:18:27;18.88;52.24
67131;HTU21D;54051;53.464;49.532;2023-05-14T06:20:53;18.92;52.76
67131;HTU21D;54051;53.464;49.532;2023-05-14T06:23:21;18.95;52.35
67131;HTU21D;54051;53.464;49.532;2023-05-14T06:25:48;18.89;52.20
67131;HTU21D;54051;53.464;49.532;2023-05-14T06:28:14;18.67;53.10
67131;HTU21D;54051;53.464;49.532;2023-05-14T06:30:41;18.47;55.41
67131;HTU21D;54051;53.464;49.532;2023-05-14T06:33:07;18.56;55.55
67131;HTU21D;54051;53.464;49.532;2023-05-14T06:35:33;18.59;55.65
67131;HTU21D;54051;53.464;49.532;2023-05-14T06:37:59;18.56;55.28
67131;HTU21D;54051;53.464;49.532;2023-05-14T06:40:25;18.41;55.51
67131;HTU21D;54051;53.464;49.532;2023-05-14T06:42:51;18.38;55.74
67131;HTU21D;54051;53.464;49.532;2023-05-14T06:45:17;18.19;55.11
67131;HTU21D;54051;53.464;49.532;2023-05-14T06:47:43;17.92;55.23
67131;HTU21D;54051;53.464;49.532;2023-05-14T06:50:09;17.48;57.41
67131;HTU21D;54051;53.464;49.532;2023-05-14T06:52:35;17.22;59.93
67131;HTU21D;54051;53.464;49.532;2023-05-14T06:55:01;16.91;62.44
67131;HTU21D;54051;53.464;49.532;2023-05-14T06:57:27;16.71;64.85
67131;HTU21D;54051;53.464;49.532;2023-05-14T06:59:54;16.65;66.34
67131;HTU21D;54051;53.464;49.532;2023-05-14T07:02:20;16.61;67.18
67131;HTU21D;54051;53.464;49.532;2023-05-14T07:04:46;16.50;68.49
67131;HTU21D;54051;53.464;49.532;2023-05-14T07:07:12;16.56;68.57
67131;HTU21D;54051;53.464;49.532;2023-05-14T07:09:40;16.59;68.59
67131;HTU21D;54051;53.464;49.532;2023-05-14T07:12:07;16.57;68.94
67131;HTU21D;54051;53.464;49.532;2023-05-14T07:14:33;16.50;67.46
67131;HTU21D;54051;53.464;49.532;2023-05-14T07:16:59;16.43;69.39
67131;HTU21D;54051;53.464;49.532;2023-05-14T07:19:25;16.48;69.65
67131;HTU21D;54051;53.464;49.532;2023-05-14T07:21:53;16.50;69.28
67131;HTU21D;54051;53.464;49.532;2023-05-14T07:24:19;16.33;71.42
67131;HTU21D;54051;53.464;49.532;2023-05-14T07:26:45;16.42;69.49
67131;HTU21D;54051;53.464;49.532;2023-05-14T07:29:11;16.54;68.41
67131;HTU21D;54051;53.464;49.532;2023-05-14T07:31:37;16.69;68.80
67131;HTU21D;54051;53.464;49.532;2023-05-14T07:34:03;16.85;68.75
67131;HTU21D;54051;53.464;49.532;2023-05-14T07:36:29;16.82;69.24
67131;HTU21D;54051;53.464;49.532;2023-05-14T07:38:55;17.14;69.96
67131;HTU21D;54051;53.464;49.532;2023-05-14T07:41:23;18.09;66.69
67131;HTU21D;54051;53.464;49.532;2023-05-14T07:43:49;19.57;57.40
67131;HTU21D;54051;53.464;49.532;2023-05-14T07:46:15;21.94;51.12
67131;HTU21D;54051;53.464;49.532;2023-05-14T07:48:41;22.27;51.06
67131;HTU21D;54051;53.464;49.532;2023-05-14T07:51:07;21.76;51.95
67131;HTU21D;54051;53.464;49.532;2023-05-14T07:53:32;21.59;52.71
67131;HTU21D;54051;53.464;49.532;2023-05-14T07:55:58;20.92;53.25
67131;HTU21D;54051;53.464;49.532;2023-05-14T07:58:24;20.54;56.58
67131;HTU21D;54051;53.464;49.532;2023-05-14T08:00:52;20.29;57.03
67131;HTU21D;54051;53.464;49.532;2023-05-14T08:03:18;19.81;57.93
67131;HTU21D;54051;53.464;49.532;2023-05-14T08:05:44;19.67;59.07
67131;HTU21D;54051;53.464;49.532;2023-05-14T08:08:10;20.55;55.83
67131;HTU21D;54051;53.464;49.532;2023-05-14T08:10:37;21.49;53.14
67131;HTU21D;54051;53.464;49.532;2023-05-14T08:13:02;22.04;52.85
67131;HTU21D;54051;53.464;49.532;2023-05-14T08:15:28;22.12;54.37
67131;HTU21D;54051;53.464;49.532;2023-05-14T08:17:54;21.58;52.67
67131;HTU21D;54051;53.464;49.532;2023-05-14T08:20:20;21.92;55.17
67131;HTU21D;54051;53.464;49.532;2023-05-14T08:22:46;21.87;52.28
67131;HTU21D;54051;53.464;49.532;2023-05-14T08:25:12;21.67;53.86
67131;HTU21D;54051;53.464;49.532;2023-05-14T08:27:39;21.66;54.55
67131;HTU21D;54051;53.464;49.532;2023-05-14T08:30:05;21.49;55.24
67131;HTU21D;54051;53.464;49.532;2023-05-14T08:32:32;21.42;53.21
67131;HTU21D;54051;53.464;49.532;2023-05-14T08:34:58;21.33;52.46
67131;HTU21D;54051;53.464;49.532;2023-05-14T08:37:24;21.52;52.16
67131;HTU21D;54051;53.464;49.532;2023-05-14T08:39:50;22.02;47.85
67131;HTU21D;54051;53.464;49.532;2023-05-14T08:42:17;22.34;46.06
67131;HTU21D;54051;53.464;49.532;2023-05-14T08:44:48;22.31;46.06
67131;HTU21D;54051;53.464;49.532;2023-05-14T08:47:16;21.79;47.09
67131;HTU21D;54051;53.464;49.532;2023-05-14T08:49:45;21.52;47.34
67131;HTU21D;54051;53.464;49.532;2023-05-14T08:52:11;21.33;48.37
67131;HTU21D;54051;53.464;49.532;2023-05-14T08:54:39;21.16;48.82
67131;HTU21D;54051;53.464;49.532;2023-05-14T08:57:05;21.38;46.84
67131;HTU21D;54051;53.464;49.532;2023-05-14T08:59:33;21.91;45.03
67131;HTU21D;54051;53.464;49.532;2023-05-14T09:02:02;21.93;42.57
67131;HTU21D;54051;53.464;49.532;2023-05-14T09:04:30;21.92;40.83
67131;HTU21D;54051;53.464;49.532;2023-05-14T09:06:57;22.02;42.72
67131;HTU21D;54051;53.464;49.532;2023-05-14T09:09:24;21.81;42.90
67131;HTU21D;54051;53.464;49.532;2023-05-14T09:11:52;21.44;44.19
67131;HTU21D;54051;53.464;49.532;2023-05-14T09:14:18;21.35;44.51
67131;HTU21D;54051;53.464;49.532;2023-05-14T09:16:45;21.17;43.67
67131;HTU21D;54051;53.464;49.532;2023-05-14T09:19:12;21.22;43.37
67131;HTU21D;54051;53.464;49.532;2023-05-14T09:21:38;20.92;43.58
67131;HTU21D;54051;53.464;49.532;2023-05-14T09:24:05;20.74;43.65
67131;HTU21D;54051;53.464;49.532;2023-05-14T09:26:32;20.69;42.85
67131;HTU21D;54051;53.464;49.532;2023-05-14T09:28:58;20.63;42.93
67131;HTU21D;54051;53.464;49.532;2023-05-14T09:31:28;20.61;44.21
67131;HTU21D;54051;53.464;49.532;2023-05-14T09:33:55;20.64;46.84
67131;HTU21D;54051;53.464;49.532;2023-05-14T09:36:20;20.65;46.80
67131;HTU21D;54051;53.464;49.532;2023-05-14T09:38:46;20.74;45.23
67131;HTU21D;54051;53.464;49.532;2023-05-14T09:41:12;20.57;46.41
67131;HTU21D;54051;53.464;49.532;2023-05-14T09:43:38;20.70;43.45
67131;HTU21D;54051;53.464;49.532;2023-05-14T09:46:04;21.07;37.85
67131;HTU21D;54051;53.464;49.532;2023-05-14T09:48:30;21.60;38.13
67131;HTU21D;54051;53.464;49.532;2023-05-14T09:50:56;22.18;39.01
67131;HTU21D;54051;53.464;49.532;2023-05-14T09:53:21;22.60;37.33
67131;HTU21D;54051;53.464;49.532;2023-05-14T09:55:47;22.66;37.08
67131;HTU21D;54051;53.464;49.532;2023-05-14T09:58:13;22.44;37.36
67131;HTU21D;54051;53.464;49.532;2023-05-14T10:00:41;22.08;40.37
67131;HTU21D;54051;53.464;49.532;2023-05-14T10:03:08;21.95;39.91
67131;HTU21D;54051;53.464;49.532;2023-05-14T10:05:37;21.74;39.63
67131;HTU21D;54051;53.464;49.532;2023-05-14T10:08:06;21.72;38.77
67131;HTU21D;54051;53.464;49.532;2023-05-14T10:10:32;21.88;39.78
67131;HTU21D;54051;53.464;49.532;2023-05-14T10:13:03;21.90;40.09
67131;HTU21D;54051;53.464;49.532;2023-05-14T10:15:36;21.55;39.52
67131;HTU21D;54051;53.464;49.532;2023-05-14T10:18:07;21.22;39.91
67131;HTU21D;54051;53.464;49.532;2023-05-14T10:20:34;20.93;40.61
67131;HTU21D;54051;53.464;49.532;2023-05-14T10:23:01;20.61;43.24
67131;HTU21D;54051;53.464;49.532;2023-05-14T10:25:27;20.36;45.33
67131;HTU21D;54051;53.464;49.532;2023-05-14T10:27:53;20.12;45.37
67131;HTU21D;54051;53.464;49.532;2023-05-14T10:30:20;20.01;47.43
67131;HTU21D;54051;53.464;49.532;2023-05-14T10:32:47;19.91;47.76
67131;HTU21D;54051;53.464;49.532;2023-05-14T10:35:14;19.73;49.25
67131;HTU21D;54051;53.464;49.532;2023-05-14T10:37:41;19.44;46.94
67131;HTU21D;54051;53.464;49.532;2023-05-14T10:40:08;19.20;50.86
67131;HTU21D;54051;53.464;49.532;2023-05-14T10:42:35;19.24;51.29
67131;HTU21D;54051;53.464;49.532;2023-05-14T10:45:06;19.03;51.23
67131;HTU21D;54051;53.464;49.532;2023-05-14T10:47:34;18.96;49.80
67131;HTU21D;54051;53.464;49.532;2023-05-14T10:50:04;18.71;49.26
67131;HTU21D;54051;53.464;49.532;2023-05-14T10:52:30;18.23;49.72
67131;HTU21D;54051;53.464;49.532;2023-05-14T10:54:58;17.98;57.29
67131;HTU21D;54051;53.464;49.532;2023-05-14T10:57:26;18.05;55.58
67131;HTU21D;54051;53.464;49.532;2023-05-14T10:59:52;18.22;59.24
67131;HTU21D;54051;53.464;49.532;2023-05-14T11:02:32;18.28;56.34
67131;HTU21D;54051;53.464;49.532;2023-05-14T11:05:01;18.42;53.52
67131;HTU21D;54051;53.464;49.532;2023-05-14T11:07:31;18.67;54.41
67131;HTU21D;54051;53.464;49.532;2023-05-14T11:10:01;18.94;51.72
67131;HTU21D;54051;53.464;49.532;2023-05-14T11:12:28;19.11;47.67
67131;HTU21D;54051;53.464;49.532;2023-05-14T11:14:55;19.24;48.95
67131;HTU21D;54051;53.464;49.532;2023-05-14T11:17:23;19.58;48.92
67131;HTU21D;54051;53.464;49.532;2023-05-14T11:19:53;19.80;49.37
67131;HTU21D;54051;53.464;49.532;2023-05-14T11:22:20;20.24;44.95
67131;HTU21D;54051;53.464;49.532;2023-05-14T11:24:46;20.47;46.60
67131;HTU21D;54051;53.464;49.532;2023-05-14T11:27:12;20.66;47.54
67131;HTU21D;54051;53.464;49.532;2023-05-14T11:29:38;20.70;46.49
67131;HTU21D;54051;53.464;49.532;2023-05-14T11:32:07;20.45;47.12
67131;HTU21D;54051;53.464;49.532;2023-05-14T11:34:33;20.14;49.79
67131;HTU21D;54051;53.464;49.532;2023-05-14T11:37:06;19.63;50.03
67131;HTU21D;54051;53.464;49.532;2023-05-14T11:39:32;19.20;51.53
67131;HTU21D;54051;53.464;49.532;2023-05-14T11:42:01;19.15;53.90
67131;HTU21D;54051;53.464;49.532;2023-05-14T11:44:27;19.32;51.37
67131;HTU21D;54051;53.464;49.532;2023-05-14T11:46:56;19.44;50.00
67131;HTU21D;54051;53.464;49.532;2023-05-14T11:49:25;19.55;49.34
67131;HTU21D;54051;53.464;49.532;2023-05-14T11:51:57;19.66;47.91
67131;HTU21D;54051;53.464;49.532;2023-05-14T11:54:26;19.57;47.57
67131;HTU21D;54051;53.464;49.532;2023-05-14T11:56:53;19.41;46.91
67131;HTU21D;54051;53.464;49.532;2023-05-14T11:59:19;19.11;47.31
67131;HTU21D;54051;53.464;49.532;2023-05-14T12:01:56;18.98;47.87
67131;HTU21D;54051;53.464;49.532;2023-05-14T12:04:22;18.78;48.22
67131;HTU21D;54051;53.464;49.532;2023-05-14T12:06:51;18.78;48.24
67131;HTU21D;54051;53.464;49.532;2023-05-14T12:09:17;18.70;48.94
67131;HTU21D;54051;53.464;49.532;2023-05-14T12:11:44;18.71;48.79
67131;HTU21D;54051;53.464;49.532;2023-05-14T12:14:14;18.98;47.00
67131;HTU21D;54051;53.464;49.532;2023-05-14T12:16:40;19.33;46.55
67131;HTU21D;54051;53.464;49.532;2023-05-14T12:19:10;19.75;44.77
67131;HTU21D;54051;53.464;49.532;2023-05-14T12:21:36;20.06;48.10
67131;HTU21D;54051;53.464;49.532;2023-05-14T12:24:03;19.36;51.01
67131;HTU21D;54051;53.464;49.532;2023-05-14T12:26:31;18.92;51.24
67131;HTU21D;54051;53.464;49.532;2023-05-14T12:29:01;18.70;51.91
67131;HTU21D;54051;53.464;49.532;2023-05-14T12:31:27;18.77;51.62
67131;HTU21D;54051;53.464;49.532;2023-05-14T12:33:54;19.10;49.14
67131;HTU21D;54051;53.464;49.532;2023-05-14T12:36:20;18.77;48.89
67131;HTU21D;54051;53.464;49.532;2023-05-14T12:38:46;18.52;49.96
67131;HTU21D;54051;53.464;49.532;2023-05-14T12:41:11;18.62;49.87
67131;HTU21D;54051;53.464;49.532;2023-05-14T12:43:39;18.77;48.44
67131;HTU21D;54051;53.464;49.532;2023-05-14T12:46:05;18.55;48.79
67131;HTU21D;54051;53.464;49.532;2023-05-14T12:48:31;18.43;49.56
67131;HTU21D;54051;53.464;49.532;2023-05-14T12:50:57;18.50;49.78
67131;HTU21D;54051;53.464;49.532;2023-05-14T12:53:25;18.67;49.08
67131;HTU21D;54051;53.464;49.532;2023-05-14T12:55:51;18.91;49.46
67131;HTU21D;54051;53.464;49.532;2023-05-14T12:58:17;19.01;48.56
67131;HTU21D;54051;53.464;49.532;2023-05-14T13:00:43;19.09;48.21
67131;HTU21D;54051;53.464;49.532;2023-05-14T13:03:08;19.12;49.63
67131;HTU21D;54051;53.464;49.532;2023-05-14T13:05:34;19.08;52.11
67131;HTU21D;54051;53.464;49.532;2023-05-14T13:08:00;19.16;50.03
67131;HTU21D;54051;53.464;49.532;2023-05-14T13:10:28;19.12;50.43
67131;HTU21D;54051;53.464;49.532;2023-05-14T13:12:54;19.03;50.43
67131;HTU21D;54051;53.464;49.532;2023-05-14T13:15:23;18.72;48.66
67131;HTU21D;54051;53.464;49.532;2023-05-14T13:17:49;18.65;50.41
67131;HTU21D;54051;53.464;49.532;2023-05-14T13:20:15;18.64;50.97
67131;HTU21D;54051;53.464;49.532;2023-05-14T13:22:42;18.69;51.64
67131;HTU21D;54051;53.464;49.532;2023-05-14T13:25:08;18.83;51.19
67131;HTU21D;54051;53.464;49.532;2023-05-14T13:27:35;18.72;51.70
67131;HTU21D;54051;53.464;49.532;2023-05-14T13:30:02;18.58;51.60
67131;HTU21D;54051;53.464;49.532;2023-05-14T13:32:28;18.65;51.38
67131;HTU21D;54051;53.464;49.532;2023-05-14T13:34:55;18.69;51.56
67131;HTU21D;54051;53.464;49.532;2023-05-14T13:37:31;18.67;51.82
67131;HTU21D;54051;53.464;49.532;2023-05-14T13:39:57;18.69;49.81
67131;HTU21D;54051;53.464;49.532;2023-05-14T13:42:23;18.56;50.05
67131;HTU21D;54051;53.464;49.532;2023-05-14T13:44:49;18.46;49.98
67131;HTU21D;54051;53.464;49.532;2023-05-14T13:47:15;18.39;50.56
67131;HTU21D;54051;53.464;49.532;2023-05-14T13:49:41;18.36;50.57
67131;HTU21D;54051;53.464;49.532;2023-05-14T13:52:07;18.35;50.75
67131;HTU21D;54051;53.464;49.532;2023-05-14T13:54:33;18.30;49.92
67131;HTU21D;54051;53.464;49.532;2023-05-14T13:56:59;18.23;50.11
67131;HTU21D;54051;53.464;49.532;2023-05-14T13:59:25;18.27;50.80
67131;HTU21D;54051;53.464;49.532;2023-05-14T14:01:52;18.36;48.31
67131;HTU21D;54051;53.464;49.532;2023-05-14T14:04:18;18.37;49.06
67131;HTU21D;54051;53.464;49.532;2023-05-14T14:06:44;18.38;49.55
67131;HTU21D;54051;53.464;49.532;2023-05-14T14:09:10;18.41;49.69
67131;HTU21D;54051;53.464;49.532;2023-05-14T14:11:38;18.36;49.53
67131;HTU21D;54051;53.464;49.532;2023-05-14T14:14:04;18.34;49.07
67131;HTU21D;54051;53.464;49.532;2023-05-14T14:16:30;18.38;49.24
67131;HTU21D;54051;53.464;49.532;2023-05-14T14:18:55;18.40;48.10
67131;HTU21D;54051;53.464;49.532;2023-05-14T14:21:21;18.36;47.83
67131;HTU21D;54051;53.464;49.532;2023-05-14T14:23:48;18.35;47.90
67131;HTU21D;54051;53.464;49.532;2023-05-14T14:26:14;18.35;47.90
67131;HTU21D;54051;53.464;49.532;2023-05-14T14:28:40;18.34;47.64
67131;HTU21D;54051;53.464;49.532;2023-05-14T14:31:06;18.40;47.67
67131;HTU21D;54051;53.464;49.532;2023-05-14T14:33:31;18.47;47.55
67131;HTU21D;54051;53.464;49.532;2023-05-14T14:35:57;18.54;47.35
67131;HTU21D;54051;53.464;49.532;2023-05-14T14:38:23;18.55;47.18
67131;HTU21D;54051;53.464;49.532;2023-05-14T14:40:49;18.47;47.63
67131;HTU21D;54051;53.464;49.532;2023-05-14T14:43:15;18.51;47.95
67131;HTU21D;54051;53.464;49.532;2023-05-14T14:45:41;18.49;48.35
67131;HTU21D;54051;53.464;49.532;2023-05-14T14:51:03;18.65;48.34
67131;HTU21D;54051;53.464;49.532;2023-05-14T14:53:30;18.74;48.48
67131;HTU21D;54051;53.464;49.532;2023-05-14T14:55:59;18.93;48.11
67131;HTU21D;54051;53.464;49.532;2023-05-14T14:58:25;18.85;48.14
67131;HTU21D;54051;53.464;49.532;2023-05-14T15:00:52;18.81;47.70
67131;HTU21D;54051;53.464;49.532;2023-05-14T15:03:19;18.83;45.96
67131;HTU21D;54051;53.464;49.532;2023-05-14T15:05:45;18.76;44.47